Aeroporto :
LOGIN :

Iscrizione | Disclaimer

   EN    FR    IT 

 










Sommario :    VFR   VFR Marginale   IFR   IFR Intensivo   IFR Molto Intensivo
Visibilità : 
Base nubi : 
>= 8 km
>= 3000ft
5 / 8 km
1000 / 3000 ft
1500m / 5 km
500 / 1000 ft
800 / 1500m
200 / 500 ft
< 800m
< 200 ft
Simboli :   Temporali  Nebbia  Neve Forte  Precipitazioni Forti  Vento > 20 kt
SIGMETs :   Varie  Temporali  Ghiacco  Turbolenza  Onda orograficha  Ceneri Vulcaniche







- Altitudine del aeroporto : 160 ft
- Codice IATA : FMO


EDDG - Münster Osnabrück Int.

ULTIMO METAR :
  • 210920Z 22008KT 9999 FEW026 12/07 Q1034 NOSIG

METARs OBSOLETI :
  • 210850Z 22006KT 180V250 9999 FEW026 12/06 Q1034 NOSIG
  • 210820Z 22005KT 170V270 9999 SCT026 11/07 Q1034 NOSIG
  • 210750Z 19005KT 160V220 9999 SCT028 10/06 Q1034 NOSIG
  • 210720Z 20004KT 170V230 9999 BKN029 10/06 Q1034 NOSIG
  • 210650Z VRB02KT 9000 BKN028 09/06 Q1034 NOSIG
  • 210620Z 17004KT 130V200 8000 BKN026 09/06 Q1034 NOSIG

TAF TAF EDDG
Valido dal 21 a 06 ore il 22 a 06 ore UTC


210500Z 2106/2206 20004KT 4000 BR BKN025
PROB30
TEMPO 2106/2109 BKN010
BECMG 2106/2109 9999
BECMG 2110/2113 26007KT
BECMG 2116/2119 VRB02KT
BECMG 2120/2123 2500 BR
BECMG 2123/2202 0500 FG BKN010
PROB30
TEMPO 2201/2206 0300 FG BKN002
Nessun NOTAM noto per questo aeroporto.



MetMap, La meteo Aeronautica in un colpo d'occhio ! - Copyright ORBIFLY Dicembre 2007 - Disclaimer

ORBIFLY MET'MAP TEAM :

Programmazione e sviluppo : Alexandra Zaïnal
Concezione e sviluppo : Baudouin d'Aumeries
Co-Programmazione e sviluppo : Marc-Olivier Méhu
Supporto tecnico e logistico : Manuel Goepfert
Aiuto per la traduzione : Arnaldo La Scala

Contatto : metmap@orbifly.com




FONTI E CREDITI :

   NOAA